sensor_id;sensor_type;location;lat;lon;timestamp;P1;durP1;ratioP1;P2;durP2;ratioP2
66270;SDS011;53063;39.614;8.814;2023-02-01T00:02:18;31.35;;;9.18;;
66270;SDS011;53063;39.614;8.814;2023-02-01T00:04:43;20.75;;;8.63;;
66270;SDS011;53063;39.614;8.814;2023-02-01T00:07:09;21.00;;;8.85;;
66270;SDS011;53063;39.614;8.814;2023-02-01T00:09:35;23.10;;;9.00;;
66270;SDS011;53063;39.614;8.814;2023-02-01T00:12:01;29.90;;;9.60;;
66270;SDS011;53063;39.614;8.814;2023-02-01T00:14:29;24.75;;;8.60;;
66270;SDS011;53063;39.614;8.814;2023-02-01T00:16:55;21.52;;;9.10;;
66270;SDS011;53063;39.614;8.814;2023-02-01T00:19:21;23.02;;;11.10;;
66270;SDS011;53063;39.614;8.814;2023-02-01T00:21:46;25.35;;;9.90;;
66270;SDS011;53063;39.614;8.814;2023-02-01T00:24:12;28.27;;;8.88;;
66270;SDS011;53063;39.614;8.814;2023-02-01T00:26:39;23.02;;;8.25;;
66270;SDS011;53063;39.614;8.814;2023-02-01T00:29:11;17.63;;;6.93;;
66270;SDS011;53063;39.614;8.814;2023-02-01T00:31:39;13.77;;;5.40;;
66270;SDS011;53063;39.614;8.814;2023-02-01T00:34:06;10.13;;;4.43;;
66270;SDS011;53063;39.614;8.814;2023-02-01T00:36:33;11.95;;;5.28;;
66270;SDS011;53063;39.614;8.814;2023-02-01T00:38:59;15.90;;;5.10;;
66270;SDS011;53063;39.614;8.814;2023-02-01T00:41:25;13.32;;;4.65;;
66270;SDS011;53063;39.614;8.814;2023-02-01T00:43:51;8.73;;;3.92;;
66270;SDS011;53063;39.614;8.814;2023-02-01T00:46:18;8.00;;;3.50;;
66270;SDS011;53063;39.614;8.814;2023-02-01T00:48:44;6.00;;;3.05;;
66270;SDS011;53063;39.614;8.814;2023-02-01T00:51:12;8.73;;;3.45;;
66270;SDS011;53063;39.614;8.814;2023-02-01T00:53:40;8.57;;;2.72;;
66270;SDS011;53063;39.614;8.814;2023-02-01T00:56:06;7.30;;;2.60;;
66270;SDS011;53063;39.614;8.814;2023-02-01T00:58:33;8.07;;;3.00;;
66270;SDS011;53063;39.614;8.814;2023-02-01T01:01:06;14.15;;;4.55;;
66270;SDS011;53063;39.614;8.814;2023-02-01T01:03:37;26.55;;;8.32;;
66270;SDS011;53063;39.614;8.814;2023-02-01T01:06:06;21.13;;;7.70;;
66270;SDS011;53063;39.614;8.814;2023-02-01T01:08:37;19.33;;;6.45;;
66270;SDS011;53063;39.614;8.814;2023-02-01T01:11:07;14.77;;;4.75;;
66270;SDS011;53063;39.614;8.814;2023-02-01T01:13:35;10.82;;;4.28;;
66270;SDS011;53063;39.614;8.814;2023-02-01T01:16:02;8.88;;;3.30;;
66270;SDS011;53063;39.614;8.814;2023-02-01T01:18:30;13.05;;;3.78;;
66270;SDS011;53063;39.614;8.814;2023-02-01T01:20:57;7.35;;;3.28;;
66270;SDS011;53063;39.614;8.814;2023-02-01T01:23:23;8.18;;;3.63;;
66270;SDS011;53063;39.614;8.814;2023-02-01T01:25:49;13.82;;;3.83;;
66270;SDS011;53063;39.614;8.814;2023-02-01T01:28:15;9.23;;;3.65;;
66270;SDS011;53063;39.614;8.814;2023-02-01T01:30:41;11.85;;;3.75;;
66270;SDS011;53063;39.614;8.814;2023-02-01T01:33:07;7.82;;;3.15;;
66270;SDS011;53063;39.614;8.814;2023-02-01T01:35:33;8.13;;;2.72;;
66270;SDS011;53063;39.614;8.814;2023-02-01T01:38:00;8.93;;;3.58;;
66270;SDS011;53063;39.614;8.814;2023-02-01T01:40:27;6.50;;;2.75;;
66270;SDS011;53063;39.614;8.814;2023-02-01T01:42:54;8.48;;;2.90;;
66270;SDS011;53063;39.614;8.814;2023-02-01T01:45:23;8.85;;;3.00;;
66270;SDS011;53063;39.614;8.814;2023-02-01T01:47:51;8.80;;;3.30;;
66270;SDS011;53063;39.614;8.814;2023-02-01T01:50:26;10.68;;;2.58;;
66270;SDS011;53063;39.614;8.814;2023-02-01T01:52:56;9.38;;;3.10;;
66270;SDS011;53063;39.614;8.814;2023-02-01T01:55:26;8.05;;;3.20;;
66270;SDS011;53063;39.614;8.814;2023-02-01T01:57:59;5.30;;;2.88;;
66270;SDS011;53063;39.614;8.814;2023-02-01T02:00:30;5.40;;;2.83;;
66270;SDS011;53063;39.614;8.814;2023-02-01T02:02:58;7.47;;;3.05;;
66270;SDS011;53063;39.614;8.814;2023-02-01T02:05:29;11.77;;;3.47;;
66270;SDS011;53063;39.614;8.814;2023-02-01T02:07:57;6.30;;;3.47;;
66270;SDS011;53063;39.614;8.814;2023-02-01T02:10:26;9.07;;;3.38;;
66270;SDS011;53063;39.614;8.814;2023-02-01T02:13:14;5.45;;;3.25;;
66270;SDS011;53063;39.614;8.814;2023-02-01T02:15:43;8.10;;;3.55;;
66270;SDS011;53063;39.614;8.814;2023-02-01T02:18:54;8.95;;;3.15;;
66270;SDS011;53063;39.614;8.814;2023-02-01T02:49:15;12.90;;;3.83;;
66270;SDS011;53063;39.614;8.814;2023-02-01T02:52:03;9.93;;;3.55;;
66270;SDS011;53063;39.614;8.814;2023-02-01T02:54:53;12.05;;;3.40;;
66270;SDS011;53063;39.614;8.814;2023-02-01T03:00:17;13.52;;;4.05;;
66270;SDS011;53063;39.614;8.814;2023-02-01T03:03:04;7.10;;;3.63;;
66270;SDS011;53063;39.614;8.814;2023-02-01T03:05:49;10.48;;;3.97;;
66270;SDS011;53063;39.614;8.814;2023-02-01T03:08:23;9.50;;;3.95;;
66270;SDS011;53063;39.614;8.814;2023-02-01T03:15:53;9.43;;;2.90;;
66270;SDS011;53063;39.614;8.814;2023-02-01T03:18:32;7.10;;;2.92;;
66270;SDS011;53063;39.614;8.814;2023-02-01T03:21:06;9.45;;;3.10;;
66270;SDS011;53063;39.614;8.814;2023-02-01T03:23:39;8.45;;;3.35;;
66270;SDS011;53063;39.614;8.814;2023-02-01T03:26:06;10.65;;;3.83;;
66270;SDS011;53063;39.614;8.814;2023-02-01T03:28:36;12.88;;;3.47;;
66270;SDS011;53063;39.614;8.814;2023-02-01T03:31:07;11.02;;;3.80;;
66270;SDS011;53063;39.614;8.814;2023-02-01T03:33:33;8.35;;;3.13;;
66270;SDS011;53063;39.614;8.814;2023-02-01T03:38:48;10.82;;;3.53;;
66270;SDS011;53063;39.614;8.814;2023-02-01T03:41:42;12.70;;;4.57;;
66270;SDS011;53063;39.614;8.814;2023-02-01T03:46:52;11.98;;;3.50;;
66270;SDS011;53063;39.614;8.814;2023-02-01T03:49:30;7.63;;;2.85;;
66270;SDS011;53063;39.614;8.814;2023-02-01T03:52:12;9.25;;;3.13;;
66270;SDS011;53063;39.614;8.814;2023-02-01T03:54:42;5.87;;;1.97;;
66270;SDS011;53063;39.614;8.814;2023-02-01T03:57:13;10.45;;;3.33;;
66270;SDS011;53063;39.614;8.814;2023-02-01T03:59:42;9.38;;;2.67;;
66270;SDS011;53063;39.614;8.814;2023-02-01T04:02:10;16.02;;;4.63;;
66270;SDS011;53063;39.614;8.814;2023-02-01T04:04:37;12.00;;;4.20;;
66270;SDS011;53063;39.614;8.814;2023-02-01T04:07:03;13.40;;;3.03;;
66270;SDS011;53063;39.614;8.814;2023-02-01T04:09:29;11.23;;;3.17;;
66270;SDS011;53063;39.614;8.814;2023-02-01T04:11:55;7.55;;;2.55;;
66270;SDS011;53063;39.614;8.814;2023-02-01T04:14:21;5.10;;;2.05;;
66270;SDS011;53063;39.614;8.814;2023-02-01T04:16:47;9.50;;;2.45;;
66270;SDS011;53063;39.614;8.814;2023-02-01T04:19:13;8.75;;;2.35;;
66270;SDS011;53063;39.614;8.814;2023-02-01T04:21:39;11.15;;;2.63;;
66270;SDS011;53063;39.614;8.814;2023-02-01T04:24:05;8.95;;;2.75;;
66270;SDS011;53063;39.614;8.814;2023-02-01T04:26:31;6.38;;;3.05;;
66270;SDS011;53063;39.614;8.814;2023-02-01T04:28:57;8.30;;;2.80;;
66270;SDS011;53063;39.614;8.814;2023-02-01T04:31:23;5.45;;;2.38;;
66270;SDS011;53063;39.614;8.814;2023-02-01T04:33:53;8.23;;;2.92;;
66270;SDS011;53063;39.614;8.814;2023-02-01T04:36:20;6.03;;;2.38;;
66270;SDS011;53063;39.614;8.814;2023-02-01T04:38:50;6.22;;;2.33;;
66270;SDS011;53063;39.614;8.814;2023-02-01T04:41:17;9.25;;;3.30;;
66270;SDS011;53063;39.614;8.814;2023-02-01T04:43:47;8.13;;;2.20;;
66270;SDS011;53063;39.614;8.814;2023-02-01T04:46:13;4.05;;;1.48;;
66270;SDS011;53063;39.614;8.814;2023-02-01T04:48:39;6.47;;;2.13;;
66270;SDS011;53063;39.614;8.814;2023-02-01T04:51:06;6.65;;;2.47;;
66270;SDS011;53063;39.614;8.814;2023-02-01T04:53:32;7.78;;;2.20;;
66270;SDS011;53063;39.614;8.814;2023-02-01T04:55:57;6.10;;;1.95;;
66270;SDS011;53063;39.614;8.814;2023-02-01T04:58:23;5.82;;;2.33;;
66270;SDS011;53063;39.614;8.814;2023-02-01T05:00:49;4.05;;;1.67;;
66270;SDS011;53063;39.614;8.814;2023-02-01T05:03:16;8.70;;;2.28;;
66270;SDS011;53063;39.614;8.814;2023-02-01T05:05:43;8.02;;;3.30;;
66270;SDS011;53063;39.614;8.814;2023-02-01T05:08:08;10.68;;;3.42;;
66270;SDS011;53063;39.614;8.814;2023-02-01T05:10:34;9.98;;;3.92;;
66270;SDS011;53063;39.614;8.814;2023-02-01T05:13:00;10.52;;;3.85;;
66270;SDS011;53063;39.614;8.814;2023-02-01T05:15:44;11.45;;;4.70;;
66270;SDS011;53063;39.614;8.814;2023-02-01T05:18:11;9.52;;;3.90;;
66270;SDS011;53063;39.614;8.814;2023-02-01T05:20:38;10.95;;;4.88;;
66270;SDS011;53063;39.614;8.814;2023-02-01T05:23:04;16.77;;;4.78;;
66270;SDS011;53063;39.614;8.814;2023-02-01T05:25:30;25.15;;;10.50;;
66270;SDS011;53063;39.614;8.814;2023-02-01T05:27:56;32.90;;;14.73;;
66270;SDS011;53063;39.614;8.814;2023-02-01T05:30:22;20.38;;;9.15;;
66270;SDS011;53063;39.614;8.814;2023-02-01T05:32:49;15.20;;;6.68;;
66270;SDS011;53063;39.614;8.814;2023-02-01T05:35:16;14.52;;;6.30;;
66270;SDS011;53063;39.614;8.814;2023-02-01T05:37:42;16.60;;;6.20;;
66270;SDS011;53063;39.614;8.814;2023-02-01T05:40:08;13.27;;;6.85;;
66270;SDS011;53063;39.614;8.814;2023-02-01T05:42:35;20.42;;;9.68;;
66270;SDS011;53063;39.614;8.814;2023-02-01T05:45:01;18.92;;;8.23;;
66270;SDS011;53063;39.614;8.814;2023-02-01T05:47:26;13.68;;;6.65;;
66270;SDS011;53063;39.614;8.814;2023-02-01T05:49:53;16.10;;;7.47;;
66270;SDS011;53063;39.614;8.814;2023-02-01T05:52:18;19.25;;;6.40;;
66270;SDS011;53063;39.614;8.814;2023-02-01T05:54:47;20.90;;;8.52;;
66270;SDS011;53063;39.614;8.814;2023-02-01T05:57:14;17.55;;;8.90;;
66270;SDS011;53063;39.614;8.814;2023-02-01T05:59:40;21.25;;;8.20;;
66270;SDS011;53063;39.614;8.814;2023-02-01T06:02:08;15.88;;;8.25;;
66270;SDS011;53063;39.614;8.814;2023-02-01T06:04:35;20.52;;;7.55;;
66270;SDS011;53063;39.614;8.814;2023-02-01T06:07:01;13.57;;;6.63;;
66270;SDS011;53063;39.614;8.814;2023-02-01T06:09:27;17.00;;;6.43;;
66270;SDS011;53063;39.614;8.814;2023-02-01T06:11:53;17.58;;;7.15;;
66270;SDS011;53063;39.614;8.814;2023-02-01T06:14:19;15.80;;;7.05;;
66270;SDS011;53063;39.614;8.814;2023-02-01T06:16:45;15.90;;;5.88;;
66270;SDS011;53063;39.614;8.814;2023-02-01T06:19:12;16.25;;;5.95;;
66270;SDS011;53063;39.614;8.814;2023-02-01T06:21:38;19.17;;;6.75;;
66270;SDS011;53063;39.614;8.814;2023-02-01T06:24:04;20.30;;;8.23;;
66270;SDS011;53063;39.614;8.814;2023-02-01T06:26:31;21.52;;;9.73;;
66270;SDS011;53063;39.614;8.814;2023-02-01T06:28:58;23.52;;;13.43;;
66270;SDS011;53063;39.614;8.814;2023-02-01T06:31:24;26.38;;;10.55;;
66270;SDS011;53063;39.614;8.814;2023-02-01T06:33:51;17.77;;;9.55;;
66270;SDS011;53063;39.614;8.814;2023-02-01T06:36:17;19.88;;;10.15;;
66270;SDS011;53063;39.614;8.814;2023-02-01T06:38:46;38.35;;;16.73;;
66270;SDS011;53063;39.614;8.814;2023-02-01T06:41:12;60.45;;;22.80;;
66270;SDS011;53063;39.614;8.814;2023-02-01T06:43:38;53.42;;;22.02;;
66270;SDS011;53063;39.614;8.814;2023-02-01T06:46:05;53.92;;;20.83;;
66270;SDS011;53063;39.614;8.814;2023-02-01T06:48:32;64.35;;;24.13;;
66270;SDS011;53063;39.614;8.814;2023-02-01T06:50:59;65.80;;;27.75;;
66270;SDS011;53063;39.614;8.814;2023-02-01T06:53:25;63.63;;;26.77;;
66270;SDS011;53063;39.614;8.814;2023-02-01T06:55:52;51.22;;;21.77;;
66270;SDS011;53063;39.614;8.814;2023-02-01T06:58:19;46.28;;;23.27;;
66270;SDS011;53063;39.614;8.814;2023-02-01T07:00:45;41.95;;;19.98;;
66270;SDS011;53063;39.614;8.814;2023-02-01T07:03:11;35.95;;;18.60;;
66270;SDS011;53063;39.614;8.814;2023-02-01T07:05:36;36.08;;;16.90;;
66270;SDS011;53063;39.614;8.814;2023-02-01T07:08:02;35.95;;;16.55;;
66270;SDS011;53063;39.614;8.814;2023-02-01T07:10:28;35.03;;;16.95;;
66270;SDS011;53063;39.614;8.814;2023-02-01T07:12:56;36.95;;;16.10;;
66270;SDS011;53063;39.614;8.814;2023-02-01T07:15:22;50.00;;;21.80;;
66270;SDS011;53063;39.614;8.814;2023-02-01T07:17:49;40.22;;;20.55;;
66270;SDS011;53063;39.614;8.814;2023-02-01T07:20:15;44.10;;;20.92;;
66270;SDS011;53063;39.614;8.814;2023-02-01T07:22:41;40.75;;;20.52;;
66270;SDS011;53063;39.614;8.814;2023-02-01T07:25:07;39.53;;;17.73;;
66270;SDS011;53063;39.614;8.814;2023-02-01T07:27:34;28.05;;;15.25;;
66270;SDS011;53063;39.614;8.814;2023-02-01T07:30:00;138.95;;;67.88;;
66270;SDS011;53063;39.614;8.814;2023-02-01T07:32:27;57.58;;;26.40;;
66270;SDS011;53063;39.614;8.814;2023-02-01T07:34:54;47.15;;;20.33;;
66270;SDS011;53063;39.614;8.814;2023-02-01T07:37:20;46.63;;;19.98;;
66270;SDS011;53063;39.614;8.814;2023-02-01T07:39:46;50.17;;;21.58;;
66270;SDS011;53063;39.614;8.814;2023-02-01T07:42:12;38.13;;;18.65;;
66270;SDS011;53063;39.614;8.814;2023-02-01T07:44:38;49.35;;;20.75;;
66270;SDS011;53063;39.614;8.814;2023-02-01T07:47:04;94.70;;;42.65;;
66270;SDS011;53063;39.614;8.814;2023-02-01T07:49:29;64.65;;;29.90;;
66270;SDS011;53063;39.614;8.814;2023-02-01T07:51:55;61.95;;;27.23;;
66270;SDS011;53063;39.614;8.814;2023-02-01T07:54:21;79.80;;;38.22;;
66270;SDS011;53063;39.614;8.814;2023-02-01T07:56:47;86.22;;;36.72;;
66270;SDS011;53063;39.614;8.814;2023-02-01T07:59:13;89.95;;;41.22;;
66270;SDS011;53063;39.614;8.814;2023-02-01T08:01:40;96.32;;;48.50;;
66270;SDS011;53063;39.614;8.814;2023-02-01T08:04:06;84.72;;;41.17;;
66270;SDS011;53063;39.614;8.814;2023-02-01T08:06:33;180.85;;;87.47;;
66270;SDS011;53063;39.614;8.814;2023-02-01T08:09:00;75.10;;;38.63;;
66270;SDS011;53063;39.614;8.814;2023-02-01T08:11:26;82.18;;;44.08;;
66270;SDS011;53063;39.614;8.814;2023-02-01T08:13:52;81.78;;;42.42;;
66270;SDS011;53063;39.614;8.814;2023-02-01T08:16:19;76.07;;;41.03;;
66270;SDS011;53063;39.614;8.814;2023-02-01T08:18:46;71.05;;;37.58;;
66270;SDS011;53063;39.614;8.814;2023-02-01T08:21:16;41.53;;;21.15;;
66270;SDS011;53063;39.614;8.814;2023-02-01T08:23:50;38.03;;;20.65;;
66270;SDS011;53063;39.614;8.814;2023-02-01T08:26:23;46.42;;;21.83;;
66270;SDS011;53063;39.614;8.814;2023-02-01T08:28:51;39.55;;;20.98;;
66270;SDS011;53063;39.614;8.814;2023-02-01T08:31:20;41.30;;;22.38;;
66270;SDS011;53063;39.614;8.814;2023-02-01T08:33:49;44.72;;;24.83;;
66270;SDS011;53063;39.614;8.814;2023-02-01T08:36:17;51.53;;;26.70;;
66270;SDS011;53063;39.614;8.814;2023-02-01T08:38:43;46.53;;;27.27;;
66270;SDS011;53063;39.614;8.814;2023-02-01T08:41:13;46.55;;;25.45;;
66270;SDS011;53063;39.614;8.814;2023-02-01T08:43:43;53.08;;;26.88;;
66270;SDS011;53063;39.614;8.814;2023-02-01T08:46:10;51.75;;;28.02;;
66270;SDS011;53063;39.614;8.814;2023-02-01T08:48:36;44.30;;;24.50;;
66270;SDS011;53063;39.614;8.814;2023-02-01T08:51:03;40.95;;;20.73;;
66270;SDS011;53063;39.614;8.814;2023-02-01T08:53:31;33.28;;;18.52;;
66270;SDS011;53063;39.614;8.814;2023-02-01T08:55:57;36.10;;;19.05;;
66270;SDS011;53063;39.614;8.814;2023-02-01T08:58:24;30.92;;;17.80;;
66270;SDS011;53063;39.614;8.814;2023-02-01T09:00:50;33.22;;;16.38;;
66270;SDS011;53063;39.614;8.814;2023-02-01T09:03:16;28.30;;;13.73;;
66270;SDS011;53063;39.614;8.814;2023-02-01T09:05:42;21.20;;;12.00;;
66270;SDS011;53063;39.614;8.814;2023-02-01T09:08:08;23.85;;;12.27;;
66270;SDS011;53063;39.614;8.814;2023-02-01T09:10:34;17.05;;;9.73;;
66270;SDS011;53063;39.614;8.814;2023-02-01T09:13:01;14.98;;;7.30;;
66270;SDS011;53063;39.614;8.814;2023-02-01T09:15:29;14.35;;;7.05;;
66270;SDS011;53063;39.614;8.814;2023-02-01T09:17:56;16.30;;;6.22;;
66270;SDS011;53063;39.614;8.814;2023-02-01T09:20:22;12.10;;;4.50;;
66270;SDS011;53063;39.614;8.814;2023-02-01T09:22:50;9.25;;;3.00;;
66270;SDS011;53063;39.614;8.814;2023-02-01T09:25:20;9.68;;;3.33;;
66270;SDS011;53063;39.614;8.814;2023-02-01T09:27:46;10.48;;;4.07;;
66270;SDS011;53063;39.614;8.814;2023-02-01T09:30:12;6.05;;;2.67;;
66270;SDS011;53063;39.614;8.814;2023-02-01T09:32:38;7.60;;;3.40;;
66270;SDS011;53063;39.614;8.814;2023-02-01T09:35:04;8.10;;;2.83;;
66270;SDS011;53063;39.614;8.814;2023-02-01T09:37:30;15.73;;;7.82;;
66270;SDS011;53063;39.614;8.814;2023-02-01T09:39:56;8.95;;;3.40;;
66270;SDS011;53063;39.614;8.814;2023-02-01T09:48:04;8.13;;;2.72;;
66270;SDS011;53063;39.614;8.814;2023-02-01T09:50:39;6.90;;;2.38;;
66270;SDS011;53063;39.614;8.814;2023-02-01T09:53:12;5.72;;;2.72;;
66270;SDS011;53063;39.614;8.814;2023-02-01T09:55:51;7.78;;;2.80;;
66270;SDS011;53063;39.614;8.814;2023-02-01T09:58:29;10.25;;;4.13;;
66270;SDS011;53063;39.614;8.814;2023-02-01T10:00:59;11.10;;;4.72;;
66270;SDS011;53063;39.614;8.814;2023-02-01T10:03:29;11.13;;;5.28;;
66270;SDS011;53063;39.614;8.814;2023-02-01T10:06:09;13.07;;;5.65;;
66270;SDS011;53063;39.614;8.814;2023-02-01T10:31:42;9.23;;;3.97;;
66270;SDS011;53063;39.614;8.814;2023-02-01T10:36:53;13.90;;;8.00;;
66270;SDS011;53063;39.614;8.814;2023-02-01T10:39:33;7.82;;;3.70;;
66270;SDS011;53063;39.614;8.814;2023-02-01T10:41:59;10.13;;;5.75;;
66270;SDS011;53063;39.614;8.814;2023-02-01T10:44:26;10.50;;;4.90;;
66270;SDS011;53063;39.614;8.814;2023-02-01T10:46:54;18.33;;;10.18;;
66270;SDS011;53063;39.614;8.814;2023-02-01T10:49:23;19.42;;;10.45;;
66270;SDS011;53063;39.614;8.814;2023-02-01T10:52:45;16.30;;;7.18;;
66270;SDS011;53063;39.614;8.814;2023-02-01T10:57:57;27.02;;;17.77;;
66270;SDS011;53063;39.614;8.814;2023-02-01T11:00:26;13.10;;;6.47;;
66270;SDS011;53063;39.614;8.814;2023-02-01T11:02:53;11.27;;;4.15;;
66270;SDS011;53063;39.614;8.814;2023-02-01T11:05:20;9.52;;;5.28;;
66270;SDS011;53063;39.614;8.814;2023-02-01T11:07:51;5.78;;;3.50;;
66270;SDS011;53063;39.614;8.814;2023-02-01T11:10:36;9.07;;;4.13;;
66270;SDS011;53063;39.614;8.814;2023-02-01T11:13:07;9.57;;;3.05;;
66270;SDS011;53063;39.614;8.814;2023-02-01T11:15:45;12.57;;;6.47;;
66270;SDS011;53063;39.614;8.814;2023-02-01T11:18:18;9.77;;;3.35;;
66270;SDS011;53063;39.614;8.814;2023-02-01T11:20:49;7.95;;;3.05;;
66270;SDS011;53063;39.614;8.814;2023-02-01T11:23:21;8.63;;;4.18;;
66270;SDS011;53063;39.614;8.814;2023-02-01T11:25:57;4.85;;;2.58;;
66270;SDS011;53063;39.614;8.814;2023-02-01T11:28:26;8.23;;;3.58;;
66270;SDS011;53063;39.614;8.814;2023-02-01T11:30:56;7.90;;;2.58;;
66270;SDS011;53063;39.614;8.814;2023-02-01T11:33:29;8.90;;;4.18;;
66270;SDS011;53063;39.614;8.814;2023-02-01T11:36:01;8.25;;;3.10;;
66270;SDS011;53063;39.614;8.814;2023-02-01T11:38:37;8.93;;;2.50;;
66270;SDS011;53063;39.614;8.814;2023-02-01T11:43:49;10.68;;;4.85;;
66270;SDS011;53063;39.614;8.814;2023-02-01T11:46:33;11.77;;;5.40;;
66270;SDS011;53063;39.614;8.814;2023-02-01T11:51:54;4.97;;;2.78;;
66270;SDS011;53063;39.614;8.814;2023-02-01T12:00:02;9.07;;;4.05;;
66270;SDS011;53063;39.614;8.814;2023-02-01T12:13:44;8.70;;;2.42;;
66270;SDS011;53063;39.614;8.814;2023-02-01T12:19:19;9.45;;;4.80;;
66270;SDS011;53063;39.614;8.814;2023-02-01T12:32:38;34.58;;;16.17;;
66270;SDS011;53063;39.614;8.814;2023-02-01T12:35:26;53.58;;;26.52;;
66270;SDS011;53063;39.614;8.814;2023-02-01T12:38:23;18.45;;;9.38;;
66270;SDS011;53063;39.614;8.814;2023-02-01T12:46:41;13.20;;;9.20;;
66270;SDS011;53063;39.614;8.814;2023-02-01T12:52:00;43.15;;;7.53;;
66270;SDS011;53063;39.614;8.814;2023-02-01T12:54:41;100.18;;;13.43;;
66270;SDS011;53063;39.614;8.814;2023-02-01T12:57:22;12.77;;;4.47;;
66270;SDS011;53063;39.614;8.814;2023-02-01T13:02:32;18.38;;;6.43;;
66270;SDS011;53063;39.614;8.814;2023-02-01T13:10:41;11.07;;;4.35;;
66270;SDS011;53063;39.614;8.814;2023-02-01T13:15:49;6.07;;;3.55;;
66270;SDS011;53063;39.614;8.814;2023-02-01T13:18:21;6.85;;;3.60;;
66270;SDS011;53063;39.614;8.814;2023-02-01T13:23:52;5.70;;;2.65;;
66270;SDS011;53063;39.614;8.814;2023-02-01T13:26:18;15.13;;;7.70;;
66270;SDS011;53063;39.614;8.814;2023-02-01T13:28:49;18.52;;;8.55;;
66270;SDS011;53063;39.614;8.814;2023-02-01T13:40:09;6.57;;;2.88;;
66270;SDS011;53063;39.614;8.814;2023-02-01T13:42:56;8.50;;;2.55;;
66270;SDS011;53063;39.614;8.814;2023-02-01T13:45:32;5.70;;;2.92;;
66270;SDS011;53063;39.614;8.814;2023-02-01T13:48:03;8.52;;;3.67;;
66270;SDS011;53063;39.614;8.814;2023-02-01T13:50:34;10.63;;;2.92;;
66270;SDS011;53063;39.614;8.814;2023-02-01T13:55:44;8.57;;;2.70;;
66270;SDS011;53063;39.614;8.814;2023-02-01T14:03:52;9.13;;;3.15;;
66270;SDS011;53063;39.614;8.814;2023-02-01T14:14:45;7.95;;;3.30;;
66270;SDS011;53063;39.614;8.814;2023-02-01T14:20:08;14.00;;;4.07;;
66270;SDS011;53063;39.614;8.814;2023-02-01T14:23:02;19.15;;;7.60;;
66270;SDS011;53063;39.614;8.814;2023-02-01T14:25:32;11.75;;;4.55;;
66270;SDS011;53063;39.614;8.814;2023-02-01T14:27:58;15.50;;;3.45;;
66270;SDS011;53063;39.614;8.814;2023-02-01T14:30:24;9.38;;;3.58;;
66270;SDS011;53063;39.614;8.814;2023-02-01T14:32:50;6.53;;;2.72;;
66270;SDS011;53063;39.614;8.814;2023-02-01T14:35:26;9.57;;;2.00;;
66270;SDS011;53063;39.614;8.814;2023-02-01T14:37:53;9.98;;;2.80;;
66270;SDS011;53063;39.614;8.814;2023-02-01T14:40:27;7.60;;;3.28;;
66270;SDS011;53063;39.614;8.814;2023-02-01T14:42:54;7.72;;;2.47;;
66270;SDS011;53063;39.614;8.814;2023-02-01T14:47:51;7.40;;;2.42;;
66270;SDS011;53063;39.614;8.814;2023-02-01T15:01:21;5.57;;;1.95;;
66270;SDS011;53063;39.614;8.814;2023-02-01T15:06:50;5.45;;;2.00;;
66270;SDS011;53063;39.614;8.814;2023-02-01T15:12:08;6.35;;;1.70;;
66270;SDS011;53063;39.614;8.814;2023-02-01T15:17:29;4.88;;;1.63;;
66270;SDS011;53063;39.614;8.814;2023-02-01T15:20:13;10.60;;;1.73;;
66270;SDS011;53063;39.614;8.814;2023-02-01T15:22:57;5.68;;;2.15;;
66270;SDS011;53063;39.614;8.814;2023-02-01T15:28:02;4.97;;;1.35;;
66270;SDS011;53063;39.614;8.814;2023-02-01T15:30:29;6.65;;;2.20;;
66270;SDS011;53063;39.614;8.814;2023-02-01T15:38:19;8.93;;;3.05;;
66270;SDS011;53063;39.614;8.814;2023-02-01T15:40:53;10.02;;;3.58;;
66270;SDS011;53063;39.614;8.814;2023-02-01T15:43:29;8.55;;;2.28;;
66270;SDS011;53063;39.614;8.814;2023-02-01T15:48:58;5.65;;;1.33;;
66270;SDS011;53063;39.614;8.814;2023-02-01T15:51:29;6.22;;;1.67;;
66270;SDS011;53063;39.614;8.814;2023-02-01T15:53:58;7.28;;;1.70;;
66270;SDS011;53063;39.614;8.814;2023-02-01T15:56:35;6.22;;;1.52;;
66270;SDS011;53063;39.614;8.814;2023-02-01T15:59:12;8.70;;;2.42;;
66270;SDS011;53063;39.614;8.814;2023-02-01T16:01:42;5.18;;;2.15;;
66270;SDS011;53063;39.614;8.814;2023-02-01T16:06:45;4.03;;;1.47;;
66270;SDS011;53063;39.614;8.814;2023-02-01T16:09:24;4.70;;;1.88;;
66270;SDS011;53063;39.614;8.814;2023-02-01T16:12:00;4.10;;;1.40;;
66270;SDS011;53063;39.614;8.814;2023-02-01T16:14:28;8.63;;;1.83;;
66270;SDS011;53063;39.614;8.814;2023-02-01T16:16:56;10.23;;;2.42;;
66270;SDS011;53063;39.614;8.814;2023-02-01T16:19:23;5.93;;;1.80;;
66270;SDS011;53063;39.614;8.814;2023-02-01T16:21:53;13.20;;;3.65;;
66270;SDS011;53063;39.614;8.814;2023-02-01T16:24:24;7.25;;;2.85;;
66270;SDS011;53063;39.614;8.814;2023-02-01T16:26:51;8.70;;;2.42;;
66270;SDS011;53063;39.614;8.814;2023-02-01T16:29:16;11.23;;;2.20;;
66270;SDS011;53063;39.614;8.814;2023-02-01T16:31:43;6.10;;;1.80;;
66270;SDS011;53063;39.614;8.814;2023-02-01T16:34:16;4.72;;;1.75;;
66270;SDS011;53063;39.614;8.814;2023-02-01T16:36:42;26.45;;;10.60;;
66270;SDS011;53063;39.614;8.814;2023-02-01T16:39:12;10.07;;;3.60;;
66270;SDS011;53063;39.614;8.814;2023-02-01T16:41:39;10.05;;;4.03;;
66270;SDS011;53063;39.614;8.814;2023-02-01T16:44:05;9.45;;;3.83;;
66270;SDS011;53063;39.614;8.814;2023-02-01T16:46:32;5.60;;;2.20;;
66270;SDS011;53063;39.614;8.814;2023-02-01T16:49:01;9.68;;;2.22;;
66270;SDS011;53063;39.614;8.814;2023-02-01T16:51:30;14.15;;;5.35;;
66270;SDS011;53063;39.614;8.814;2023-02-01T16:53:58;9.00;;;3.65;;
66270;SDS011;53063;39.614;8.814;2023-02-01T16:56:29;13.32;;;4.55;;
66270;SDS011;53063;39.614;8.814;2023-02-01T16:58:57;5.68;;;1.98;;
66270;SDS011;53063;39.614;8.814;2023-02-01T17:01:23;6.65;;;2.72;;
66270;SDS011;53063;39.614;8.814;2023-02-01T17:03:49;8.93;;;3.28;;
66270;SDS011;53063;39.614;8.814;2023-02-01T17:06:22;11.10;;;3.53;;
66270;SDS011;53063;39.614;8.814;2023-02-01T17:08:51;10.32;;;2.20;;
66270;SDS011;53063;39.614;8.814;2023-02-01T17:11:23;10.32;;;2.40;;
66270;SDS011;53063;39.614;8.814;2023-02-01T17:13:49;16.85;;;3.40;;
66270;SDS011;53063;39.614;8.814;2023-02-01T17:16:20;11.07;;;3.97;;
66270;SDS011;53063;39.614;8.814;2023-02-01T17:18:57;13.85;;;6.22;;
66270;SDS011;53063;39.614;8.814;2023-02-01T17:21:25;14.35;;;4.82;;
66270;SDS011;53063;39.614;8.814;2023-02-01T17:23:54;11.70;;;4.93;;
66270;SDS011;53063;39.614;8.814;2023-02-01T17:26:22;16.77;;;6.90;;
66270;SDS011;53063;39.614;8.814;2023-02-01T17:28:48;23.67;;;10.43;;
66270;SDS011;53063;39.614;8.814;2023-02-01T17:31:15;19.38;;;9.65;;
66270;SDS011;53063;39.614;8.814;2023-02-01T17:33:41;23.05;;;10.48;;
66270;SDS011;53063;39.614;8.814;2023-02-01T17:36:15;30.90;;;13.70;;
66270;SDS011;53063;39.614;8.814;2023-02-01T17:38:42;19.55;;;8.43;;
66270;SDS011;53063;39.614;8.814;2023-02-01T17:41:09;14.57;;;7.45;;
66270;SDS011;53063;39.614;8.814;2023-02-01T17:43:36;20.42;;;8.25;;
66270;SDS011;53063;39.614;8.814;2023-02-01T17:46:03;17.40;;;7.85;;
66270;SDS011;53063;39.614;8.814;2023-02-01T17:48:40;16.52;;;6.57;;
66270;SDS011;53063;39.614;8.814;2023-02-01T17:51:16;15.57;;;5.85;;
66270;SDS011;53063;39.614;8.814;2023-02-01T17:53:44;10.63;;;4.38;;
66270;SDS011;53063;39.614;8.814;2023-02-01T17:56:18;12.98;;;4.45;;
66270;SDS011;53063;39.614;8.814;2023-02-01T17:58:45;10.65;;;2.63;;
66270;SDS011;53063;39.614;8.814;2023-02-01T18:01:12;7.32;;;2.85;;
66270;SDS011;53063;39.614;8.814;2023-02-01T18:03:40;9.80;;;3.70;;
66270;SDS011;53063;39.614;8.814;2023-02-01T18:06:14;11.38;;;3.50;;
66270;SDS011;53063;39.614;8.814;2023-02-01T18:08:41;15.63;;;3.33;;